Time;durP1;ratioP1;P1;durP2;ratioP2;P2;SDS_P1;SDS_P2;PMS_P1;PMS_P2;Temp;Humidity;BMP_temperature;BMP_pressure;BME280_temperature;BME280_humidity;BME280_pressure;Samples;Min_cycle;Max_cycle;Signal;HPM_P1;HPM_P2
2021/09/14 00:01:48;;;;;;;;;0.00;0.00;;;;;27.60;41.01;100356.16;5037221;28;46908;-68
2021/09/14 00:04:14;;;;;;;;;0.00;0.00;;;;;27.58;40.47;100356.25;5055714;28;45456;-67
2021/09/14 00:06:40;;;;;;;;;0.00;0.00;;;;;27.57;40.56;100365.44;5055449;28;45787;-67
2021/09/14 00:09:07;;;;;;;;;0.00;0.00;;;;;27.56;40.64;100377.34;5037500;28;45752;-67
2021/09/14 00:11:39;;;;;;;;;0.00;0.00;;;;;27.58;40.85;100375.38;5055067;28;46096;-68
2021/09/14 00:14:04;;;;;;;;;0.00;0.00;;;;;27.59;40.51;100376.25;5055320;28;45389;-67
2021/09/14 00:16:30;;;;;;;;;0.00;0.00;;;;;27.55;40.93;100364.63;5037099;28;45884;-67
2021/09/14 00:18:55;;;;;;;;;0.00;0.00;;;;;27.57;40.74;100370.00;5036820;28;45411;-67
2021/09/14 00:21:21;;;;;;;;;0.00;0.00;;;;;27.57;40.99;100368.19;5054735;28;45571;-67
2021/09/14 00:23:48;;;;;;;;;0.00;0.00;;;;;27.57;41.24;100368.19;5036562;28;45862;-67
2021/09/14 00:26:14;;;;;;;;;0.00;0.00;;;;;27.58;41.17;100372.66;5036352;28;45444;-68
2021/09/14 00:28:40;;;;;;;;;0.00;0.00;;;;;27.57;41.12;100368.19;5055722;28;45559;-68
2021/09/14 00:31:05;;;;;;;;;0.00;0.00;;;;;27.55;40.82;100364.63;5054927;28;45476;-67
2021/09/14 00:33:30;;;;;;;;;0.00;0.00;;;;;27.57;40.77;100361.81;5054553;28;45535;-68
2021/09/14 00:35:57;;;;;;;;;0.00;0.00;;;;;27.56;41.09;100349.16;5055117;28;45529;-67
2021/09/14 00:38:22;;;;;;;;;0.00;0.00;;;;;27.55;41.10;100361.91;5055149;28;45451;-66
2021/09/14 00:40:47;;;;;;;;;0.00;0.00;;;;;27.56;40.74;100360.06;5054736;28;46112;-67
2021/09/14 00:43:23;;;;;;;;;0.00;0.00;;;;;27.57;41.31;100351.78;5054604;28;45397;-67
2021/09/14 00:45:49;;;;;;;;;0.00;0.00;;;;;27.56;40.86;100350.00;5055023;28;45485;-66
2021/09/14 00:48:15;;;;;;;;;0.00;0.00;;;;;27.54;40.92;100351.97;5054543;28;45426;-67
2021/09/14 00:50:42;;;;;;;;;0.00;0.00;;;;;27.56;40.95;100354.59;5054116;28;45406;-67
2021/09/14 00:53:07;;;;;;;;;0.00;0.00;;;;;27.57;41.09;100359.97;5035758;28;45594;-67
2021/09/14 00:55:33;;;;;;;;;0.00;0.00;;;;;27.53;40.59;100358.38;5054966;28;45591;-68
2021/09/14 00:57:58;;;;;;;;;0.00;0.00;;;;;27.55;41.14;100353.72;5054775;28;44850;-67
2021/09/14 01:00:25;;;;;;;;;0.00;0.00;;;;;27.52;41.30;100349.31;5054810;28;45436;-67
2021/09/14 01:02:51;;;;;;;;;0.00;0.00;;;;;27.54;41.26;100362.88;5055999;28;45425;-66
2021/09/14 01:05:16;;;;;;;;;0.00;0.00;;;;;27.55;41.16;100372.81;5056201;28;45472;-66
2021/09/14 01:07:42;;;;;;;;;0.00;0.00;;;;;27.53;40.93;100380.25;5056432;28;45419;-67
2021/09/14 01:10:11;;;;;;;;;0.00;0.00;;;;;27.54;41.03;100388.34;5036783;28;47356;-67
2021/09/14 01:12:38;;;;;;;;;0.00;0.00;;;;;27.53;40.80;100383.88;5055837;28;45472;-67
2021/09/14 01:15:03;;;;;;;;;0.00;0.00;;;;;27.52;40.96;100378.50;5055929;28;45447;-66
2021/09/14 01:17:29;;;;;;;;;0.00;0.00;;;;;27.54;41.25;100376.56;5055931;28;45468;-67
2021/09/14 01:19:55;;;;;;;;;0.00;0.00;;;;;27.54;40.63;100379.28;5055351;28;45794;-67
2021/09/14 01:22:25;;;;;;;;;0.00;0.00;;;;;27.53;41.31;100378.41;5055343;28;45441;-67
2021/09/14 01:24:50;;;;;;;;;0.00;0.00;;;;;27.55;40.76;100389.22;5057861;28;45397;-67
2021/09/14 01:27:15;;;;;;;;;0.00;0.00;;;;;27.54;40.62;100382.88;5036839;28;45551;-67
2021/09/14 01:32:25;;;;;;;;;0.00;0.00;;;;;27.53;41.33;100382.97;5055205;28;45421;-67
2021/09/14 01:34:50;;;;;;;;;0.00;0.00;;;;;27.56;41.13;100385.53;5055608;28;45386;-67
2021/09/14 01:37:15;;;;;;;;;0.00;0.00;;;;;27.53;41.27;100388.44;5055939;28;45640;-67
2021/09/14 01:39:41;;;;;;;;;0.00;0.00;;;;;27.53;40.86;100394.81;5055945;28;46713;-67
2021/09/14 01:42:06;;;;;;;;;0.00;0.00;;;;;27.54;40.84;100395.66;5055673;28;45486;-67
2021/09/14 01:44:32;;;;;;;;;0.00;0.00;;;;;27.54;41.01;100398.41;5055492;28;46062;-67
2021/09/14 01:46:58;;;;;;;;;0.00;0.00;;;;;27.54;41.29;100421.13;5055369;28;45413;-66
2021/09/14 01:49:23;;;;;;;;;0.00;0.00;;;;;27.54;41.04;100414.78;5054991;28;46166;-67
2021/09/14 01:51:49;;;;;;;;;0.00;0.00;;;;;27.51;40.77;100415.88;5036802;28;45482;-66
2021/09/14 01:54:14;;;;;;;;;0.00;0.00;;;;;27.53;41.05;100432.13;5055046;28;46005;-67
2021/09/14 01:56:40;;;;;;;;;0.00;0.00;;;;;27.53;41.54;100438.50;5055758;28;44972;-67
2021/09/14 01:59:05;;;;;;;;;0.00;0.00;;;;;27.51;40.79;100432.25;5055554;28;45880;-67
2021/09/14 02:01:43;;;;;;;;;0.00;0.00;;;;;27.54;40.97;100440.25;5055436;28;45809;-67
2021/09/14 02:04:18;;;;;;;;;0.00;0.00;;;;;27.55;40.91;100432.91;5055656;28;45405;-66
2021/09/14 03:00:12;;;;;;;;;0.00;0.00;;;;;27.52;40.99;100349.31;5055175;28;45783;-67
2021/09/14 03:02:37;;;;;;;;;0.00;0.00;;;;;27.52;41.57;100353.91;5054232;28;45649;-67
2021/09/14 03:05:04;;;;;;;;;0.00;0.00;;;;;27.50;40.95;100340.34;5054202;28;45674;-66
2021/09/14 03:07:30;;;;;;;;;0.00;0.00;;;;;27.50;41.28;100323.97;5054226;28;45406;-67
2021/09/14 03:09:55;;;;;;;;;0.00;0.00;;;;;27.51;41.53;100327.56;5054209;28;45334;-67
2021/09/14 03:12:21;;;;;;;;;0.00;0.00;;;;;27.52;41.33;100334.78;5053847;28;46203;-66
2021/09/14 03:14:48;;;;;;;;;0.00;0.00;;;;;27.51;41.12;100341.22;5054416;28;45446;-66
2021/09/14 03:17:14;;;;;;;;;0.00;0.00;;;;;27.51;41.07;100333.03;5054152;28;45464;-67
2021/09/14 03:19:39;;;;;;;;;0.00;0.00;;;;;27.45;41.59;100319.75;5054192;28;45483;-67
2021/09/14 03:22:04;;;;;;;;;0.00;0.00;;;;;27.49;41.84;100329.50;5056337;28;45803;-67
2021/09/14 03:24:30;;;;;;;;;0.00;0.00;;;;;27.50;41.09;100334.00;5053938;28;45539;-66
2021/09/14 03:26:57;;;;;;;;;0.00;0.00;;;;;27.45;41.09;100320.66;5054207;28;45452;-66
2021/09/14 03:29:23;;;;;;;;;0.00;0.00;;;;;27.50;41.15;100334.88;5054804;28;45389;-66
2021/09/14 03:31:48;;;;;;;;;0.00;0.00;;;;;27.50;41.26;100323.97;5052858;28;45413;-66
2021/09/14 03:34:14;;;;;;;;;0.00;0.00;;;;;27.50;41.44;100334.88;5056338;28;45543;-66
2021/09/14 03:36:39;;;;;;;;;0.00;0.00;;;;;27.50;41.33;100315.75;5056862;28;45126;-66
2021/09/14 03:39:04;;;;;;;;;0.00;0.00;;;;;27.50;41.62;100303.97;5057455;28;45397;-66
2021/09/14 03:41:30;;;;;;;;;0.00;0.00;;;;;27.46;41.39;100291.47;5057333;28;46600;-66
2021/09/14 03:43:55;;;;;;;;;0.00;0.00;;;;;27.49;41.79;100300.38;5057220;28;45415;-66
2021/09/14 03:46:20;;;;;;;;;0.00;0.00;;;;;27.47;41.51;100290.50;5057114;28;45428;-67
2021/09/14 03:48:46;;;;;;;;;0.00;0.00;;;;;27.50;41.50;100293.03;5057689;28;45431;-67
2021/09/14 03:51:11;;;;;;;;;0.00;0.00;;;;;27.49;41.59;100285.81;5038582;28;45921;-66
2021/09/14 03:53:36;;;;;;;;;0.00;0.00;;;;;27.45;41.38;100271.50;5057377;28;45506;-66
2021/09/14 03:56:02;;;;;;;;;0.00;0.00;;;;;27.45;41.45;100266.03;5057173;28;45742;-66
2021/09/14 03:58:27;;;;;;;;;0.00;0.00;;;;;27.48;41.37;100276.75;5057192;28;45570;-66
2021/09/14 04:00:53;;;;;;;;;0.00;0.00;;;;;27.49;41.68;100273.06;5057066;28;45746;-67
2021/09/14 04:03:26;;;;;;;;;0.00;0.00;;;;;27.49;41.69;100273.06;5056876;28;45528;-67
2021/09/14 04:11:12;;;;;;;;;0.00;0.00;;;;;27.48;41.87;100270.41;5057175;28;46141;-67
2021/09/14 04:13:37;;;;;;;;;0.00;0.00;;;;;27.49;42.06;100250.31;5056061;28;45476;-67
2021/09/14 04:16:02;;;;;;;;;0.00;0.00;;;;;27.46;41.81;100250.53;5057308;28;45668;-66
2021/09/14 04:18:28;;;;;;;;;0.00;0.00;;;;;27.48;41.78;100260.34;5057227;28;45428;-66
2021/09/14 04:20:53;;;;;;;;;0.00;0.00;;;;;27.49;41.38;100280.34;5056574;28;46111;-67
2021/09/14 04:23:19;;;;;;;;;0.00;0.00;;;;;27.48;41.37;100292.25;5038089;28;45496;-67
2021/09/14 04:25:45;;;;;;;;;0.00;0.00;;;;;27.50;41.99;100295.78;5056512;28;45475;-67
2021/09/14 04:28:10;;;;;;;;;0.00;0.00;;;;;27.49;41.78;100283.97;5057078;28;45528;-67
2021/09/14 04:30:36;;;;;;;;;0.00;0.00;;;;;27.47;42.12;100271.38;5021561;28;47523;-67
2021/09/14 04:33:01;;;;;;;;;0.00;0.00;;;;;27.49;42.05;100264.88;5056625;28;45468;-66
2021/09/14 04:35:27;;;;;;;;;0.00;0.00;;;;;27.49;41.59;100250.31;5038744;28;45449;-67
2021/09/14 04:37:53;;;;;;;;;0.00;0.00;;;;;27.49;41.89;100236.66;5056610;28;45436;-66
2021/09/14 04:40:19;;;;;;;;;0.00;0.00;;;;;27.46;41.49;100212.28;5056184;28;45437;-67
2021/09/14 04:42:44;;;;;;;;;0.00;0.00;;;;;27.47;41.54;100193.06;5037739;28;45401;-67
2021/09/14 04:45:10;;;;;;;;;0.00;0.00;;;;;27.48;42.08;100178.41;5055925;28;45415;-67
2021/09/14 04:47:35;;;;;;;;;0.00;0.00;;;;;27.48;42.21;100188.47;5038126;28;45442;-67
2021/09/14 04:50:01;;;;;;;;;0.00;0.00;;;;;27.45;41.53;100188.66;5037537;28;46628;-66
2021/09/14 04:52:26;;;;;;;;;0.00;0.00;;;;;27.44;41.58;100178.72;5056560;28;45469;-66
2021/09/14 04:54:51;;;;;;;;;0.00;0.00;;;;;27.46;41.98;100164.00;5056401;28;45700;-67
2021/09/14 04:57:17;;;;;;;;;0.00;0.00;;;;;27.44;42.33;100148.69;5056570;28;45469;-67
2021/09/14 04:59:42;;;;;;;;;0.00;0.00;;;;;27.43;42.50;100136.91;5055962;28;45532;-67
2021/09/14 05:02:07;;;;;;;;;0.00;0.00;;;;;27.44;42.36;100148.69;5056522;28;45544;-67
2021/09/14 05:04:33;;;;;;;;;0.00;0.00;;;;;27.42;42.41;100167.03;5055636;28;45713;-67
2021/09/14 05:06:58;;;;;;;;;0.00;0.00;;;;;27.41;42.40;100187.09;5055843;28;45452;-67
2021/09/14 05:09:24;;;;;;;;;0.00;0.00;;;;;27.42;41.86;100208.88;5055413;28;45486;-67
2021/09/14 05:11:50;;;;;;;;;0.00;0.00;;;;;27.41;41.90;100225.34;5055509;28;45484;-67
2021/09/14 05:14:15;;;;;;;;;0.33;0.33;;;;;27.41;42.21;100231.69;5055294;28;45518;-67
2021/09/14 05:16:41;;;;;;;;;0.00;0.00;;;;;27.42;42.58;100232.56;5055797;28;45473;-68
2021/09/14 05:19:08;;;;;;;;;0.00;0.00;;;;;27.41;42.33;100226.25;5055307;28;46185;-67
2021/09/14 05:21:40;;;;;;;;;0.00;0.00;;;;;27.40;41.98;100235.41;5037586;28;44927;-67
2021/09/14 05:24:05;;;;;;;;;0.00;0.00;;;;;27.41;42.59;100223.50;5055329;28;45526;-67
2021/09/14 05:26:31;;;;;;;;;0.00;0.00;;;;;27.43;42.54;100234.31;5055781;28;45511;-67
2021/09/14 05:29:09;;;;;;;;;0.00;0.00;;;;;27.41;42.24;100247.19;5058108;28;45515;-67
2021/09/14 05:31:35;;;;;;;;;0.00;0.00;;;;;27.40;42.46;100245.44;5054744;28;45447;-67
2021/09/14 05:34:01;;;;;;;;;0.00;0.00;;;;;27.41;42.57;100258.13;5054939;28;45477;-67
2021/09/14 05:36:26;;;;;;;;;0.00;0.00;;;;;27.41;42.26;100267.22;5055644;28;45919;-68
2021/09/14 05:38:52;;;;;;;;;0.00;0.00;;;;;27.41;42.46;100266.31;5055032;28;45486;-67
2021/09/14 05:41:17;;;;;;;;;0.00;0.00;;;;;27.39;42.65;100277.34;5055278;28;44896;-66
2021/09/14 05:43:43;;;;;;;;;0.00;0.00;;;;;27.37;42.26;100284.75;5036942;28;45528;-67
2021/09/14 05:46:08;;;;;;;;;0.00;0.00;;;;;27.41;42.84;100288.16;5055629;28;45429;-67
2021/09/14 05:48:33;;;;;;;;;0.00;0.00;;;;;27.41;42.43;100304.53;5054748;28;46485;-67
2021/09/14 05:50:59;;;;;;;;;0.00;0.00;;;;;27.40;42.38;100317.31;5036584;28;45504;-66
2021/09/14 05:53:24;;;;;;;;;0.00;0.00;;;;;27.41;42.46;100329.13;5055442;28;45420;-66
2021/09/14 05:55:50;;;;;;;;;0.00;0.00;;;;;27.42;42.64;100341.81;5055240;28;45572;-66
2021/09/14 05:58:15;;;;;;;;;0.00;0.00;;;;;27.40;42.26;100361.03;5019322;28;46383;-67
2021/09/14 06:00:42;;;;;;;;;0.00;0.00;;;;;27.42;42.83;100363.66;5054922;28;45823;-66
2021/09/14 06:03:07;;;;;;;;;0.00;0.00;;;;;27.41;42.11;100364.63;5055280;28;45495;-67
2021/09/14 06:05:33;;;;;;;;;0.00;0.00;;;;;27.41;42.22;100370.09;5055202;28;45350;-67
2021/09/14 06:07:58;;;;;;;;;0.00;0.00;;;;;27.38;42.62;100373.03;5054888;28;45887;-67
2021/09/14 06:10:23;;;;;;;;;0.67;0.67;;;;;27.40;42.80;100384.72;5055010;28;44860;-70
2021/09/14 06:12:49;;;;;;;;;8.00;8.00;;;;;27.27;43.91;100382.75;5055259;28;45352;-69
2021/09/14 06:15:15;;;;;;;;;8.67;8.67;;;;;27.10;44.58;100380.13;5054544;28;45525;-69
2021/09/14 06:17:40;;;;;;;;;9.00;9.00;;;;;26.94;45.27;100381.06;5054597;28;45362;-69
2021/09/14 06:20:06;;;;;;;;;14.00;10.00;;;;;26.74;46.17;100386.81;5054402;28;45461;-70
2021/09/14 06:22:32;;;;;;;;;9.33;9.33;;;;;26.59;46.85;100385.00;5053572;28;45360;-69
2021/09/14 06:24:59;;;;;;;;;8.33;8.33;;;;;26.50;47.08;100387.28;5053342;28;45671;-69
2021/09/14 06:27:24;;;;;;;;;8.00;8.00;;;;;26.45;46.93;100375.72;5053004;28;45445;-68
2021/09/14 06:29:49;;;;;;;;;9.33;8.33;;;;;26.45;47.23;100378.47;5053198;28;45528;-69
2021/09/14 06:32:15;;;;;;;;;9.00;7.33;;;;;26.38;47.39;100371.63;5052992;28;44878;-70
2021/09/14 06:34:40;;;;;;;;;7.00;6.00;;;;;26.40;47.72;100380.59;5052851;28;45575;-69
2021/09/14 06:37:10;;;;;;;;;9.33;8.00;;;;;26.41;47.90;100384.19;5053091;28;45938;-69
2021/09/14 06:39:36;;;;;;;;;8.67;8.67;;;;;26.38;48.03;100381.63;5052976;28;45421;-68
2021/09/14 06:42:05;;;;;;;;;8.33;8.33;;;;;26.36;47.88;100389.91;5053538;28;45917;-68
2021/09/14 06:44:32;;;;;;;;;8.00;7.67;;;;;26.35;48.30;100377.22;5034185;28;45452;-69
2021/09/14 06:46:57;;;;;;;;;8.00;7.33;;;;;26.27;48.60;100357.72;5053031;28;45580;-69
2021/09/14 06:49:26;;;;;;;;;10.00;8.67;;;;;26.26;48.67;100367.75;5034435;28;45696;-69
2021/09/14 06:51:51;;;;;;;;;9.33;8.33;;;;;26.22;48.50;100368.00;5053366;28;45862;-68
2021/09/14 06:54:16;;;;;;;;;8.00;8.00;;;;;26.17;49.27;100378.28;5054985;28;45457;-68
2021/09/14 06:56:42;;;;;;;;;7.67;7.67;;;;;26.13;49.17;100374.84;5051921;28;47489;-70
2021/09/14 06:59:07;;;;;;;;;10.67;10.67;;;;;26.08;49.41;100377.84;5074595;28;45391;-69
2021/09/14 07:01:33;;;;;;;;;9.00;9.00;;;;;26.04;49.64;100375.38;5074289;28;46087;-69
2021/09/14 07:03:58;;;;;;;;;8.67;8.67;;;;;26.01;49.94;100370.97;5074347;28;45361;-68
2021/09/14 07:06:23;;;;;;;;;8.33;8.00;;;;;25.97;49.95;100368.50;5056455;28;46650;-69
2021/09/14 07:08:49;;;;;;;;;8.00;8.00;;;;;25.93;50.04;100365.97;5077200;28;45512;-70
2021/09/14 07:11:15;;;;;;;;;11.00;11.00;;;;;25.90;50.49;100363.41;5076633;28;45884;-68
2021/09/14 07:13:42;;;;;;;;;10.67;9.67;;;;;25.85;50.77;100340.94;5076739;28;45474;-68
2021/09/14 07:16:08;;;;;;;;;8.00;8.00;;;;;25.80;50.67;100334.00;5076327;28;46343;-68
2021/09/14 07:18:38;;;;;;;;;8.67;7.33;;;;;25.70;51.12;100303.69;5077831;28;45525;-66
2021/09/14 07:21:03;;;;;;;;;9.00;8.67;;;;;25.73;51.31;100296.22;5077568;28;45477;-66
2021/09/14 07:23:29;;;;;;;;;9.67;9.00;;;;;25.72;51.19;100301.75;5078403;28;45401;-66
2021/09/14 07:25:54;;;;;;;;;8.00;8.00;;;;;25.70;51.40;100310.00;5074973;28;45468;-66
2021/09/14 07:28:20;;;;;;;;;6.33;6.33;;;;;25.68;51.70;100322.81;5058856;28;45385;-66
2021/09/14 07:30:46;;;;;;;;;7.00;7.00;;;;;25.66;51.52;100319.31;5076989;28;45479;-66
2021/09/14 07:33:12;;;;;;;;;8.67;7.00;;;;;25.66;51.65;100332.94;5078335;28;45569;-66
2021/09/14 07:35:38;;;;;;;;;9.67;9.67;;;;;25.68;52.08;100344.63;5077815;28;46484;-66
2021/09/14 07:38:04;;;;;;;;;8.00;8.00;;;;;25.68;51.96;100338.28;5077747;28;45449;-66
2021/09/14 07:40:29;;;;;;;;;8.67;8.67;;;;;25.67;52.13;100348.31;5077550;28;45416;-66
2021/09/14 07:42:57;;;;;;;;;5.00;5.00;;;;;25.68;52.02;100363.69;5077927;28;45397;-66
2021/09/14 07:45:22;;;;;;;;;6.67;6.67;;;;;25.68;52.59;100365.53;5076422;28;46939;-65
2021/09/14 07:47:48;;;;;;;;;5.00;5.00;;;;;25.67;52.59;100370.09;5058781;28;45485;-66
2021/09/14 07:50:15;;;;;;;;;8.33;7.00;;;;;25.67;52.73;100361.94;5077533;28;45459;-66
2021/09/14 07:52:41;;;;;;;;;9.67;8.67;;;;;25.70;52.46;100369.91;5077729;28;45888;-66
2021/09/14 07:55:07;;;;;;;;;6.67;6.67;;;;;25.70;52.88;100372.66;5077464;28;45819;-65
2021/09/14 07:57:33;;;;;;;;;8.00;6.00;;;;;25.70;52.64;100360.88;5077242;28;45423;-65
2021/09/14 07:59:59;;;;;;;;;10.33;10.00;;;;;25.71;52.99;100357.19;5058703;28;45658;-65
2021/09/14 08:02:25;;;;;;;;;9.33;8.33;;;;;25.72;53.08;100351.66;5077338;28;45410;-65
2021/09/14 08:04:51;;;;;;;;;10.00;8.67;;;;;25.71;53.12;100358.06;5078356;28;45422;-66
2021/09/14 08:07:18;;;;;;;;;12.33;9.00;;;;;25.72;52.58;100368.00;5077208;28;45535;-66
2021/09/14 08:09:44;;;;;;;;;7.33;7.33;;;;;25.73;53.02;100374.31;5078739;28;45516;-66
2021/09/14 08:12:09;;;;;;;;;11.67;11.00;;;;;25.70;53.31;100383.53;5076167;28;45469;-66
2021/09/14 08:14:36;;;;;;;;;6.00;6.00;;;;;25.71;53.43;100387.13;5058360;28;48368;-66
2021/09/14 08:17:02;;;;;;;;;8.67;8.67;;;;;25.72;53.45;100394.34;5058216;28;45568;-65
2021/09/14 08:19:31;;;;;;;;;8.33;7.00;;;;;25.68;53.27;100388.19;5057311;28;45432;-67
2021/09/14 08:21:58;;;;;;;;;8.00;7.33;;;;;25.73;53.81;100390.66;5077120;28;45684;-66
2021/09/14 08:24:24;;;;;;;;;5.33;5.33;;;;;25.74;53.47;100387.84;5075610;28;45664;-66
2021/09/14 08:26:49;;;;;;;;;6.67;6.67;;;;;25.75;53.62;100389.63;5076542;28;45667;-66
2021/09/14 08:29:15;;;;;;;;;6.00;5.33;;;;;25.76;53.31;100387.78;5043430;28;44889;-66
2021/09/14 08:31:41;;;;;;;;;21.33;20.67;;;;;25.80;53.75;100392.09;5051281;28;45420;-66
2021/09/14 08:34:07;;;;;;;;;10.00;10.00;;;;;25.81;53.73;100398.41;5048138;28;46125;-67
2021/09/14 08:36:34;;;;;;;;;10.33;8.33;;;;;25.81;53.80;100382.06;5059766;28;45714;-65
2021/09/14 08:39:00;;;;;;;;;7.00;7.00;;;;;25.83;53.33;100393.75;5057141;28;45344;-64
2021/09/14 08:41:25;;;;;;;;;9.00;9.00;;;;;25.86;53.67;100401.78;5056912;28;45522;-65
2021/09/14 08:43:54;;;;;;;;;9.67;9.67;;;;;25.85;53.74;100409.03;5056588;28;45577;-69
2021/09/14 08:46:22;;;;;;;;;10.00;8.67;;;;;25.87;53.61;100419.88;5038502;28;45442;-65
2021/09/14 08:48:54;;;;;;;;;10.33;9.00;;;;;25.86;53.95;100415.41;5051006;28;45505;-66
2021/09/14 08:51:19;;;;;;;;;7.67;7.67;;;;;25.87;53.57;100419.88;5049498;28;45449;-65
2021/09/14 08:53:45;;;;;;;;;7.67;7.67;;;;;25.88;53.62;100424.38;5053978;28;46017;-64
2021/09/14 08:56:11;;;;;;;;;4.33;4.33;;;;;25.90;53.33;100417.91;5054890;28;45545;-64
2021/09/14 08:58:37;;;;;;;;;2.33;2.33;;;;;25.93;53.50;100408.66;5054662;28;45475;-66
2021/09/14 09:01:09;;;;;;;;;9.67;7.67;;;;;25.96;53.61;100403.06;5055071;28;45437;-65
2021/09/14 09:03:35;;;;;;;;;5.00;3.33;;;;;25.98;53.26;100412.03;5053154;28;46991;-64
2021/09/14 09:06:01;;;;;;;;;5.00;5.00;;;;;26.01;53.80;100406.38;5053155;28;45438;-65
2021/09/14 09:08:28;;;;;;;;;7.33;5.67;;;;;26.02;53.59;100397.28;5054157;28;45437;-66
2021/09/14 09:11:13;;;;;;;;;5.00;5.00;;;;;26.07;53.47;100397.00;5053212;28;45513;-65
2021/09/14 09:14:37;;;;;;;;;5.33;5.33;;;;;26.09;53.80;100404.13;5047049;28;45428;-69
2021/09/14 09:17:13;;;;;;;;;7.67;7.67;;;;;26.12;53.22;100408.53;5045061;28;45697;-65
2021/09/14 09:19:41;;;;;;;;;5.67;5.67;;;;;26.12;53.45;100400.38;5054302;28;45429;-65
2021/09/14 09:22:11;;;;;;;;;4.67;4.67;;;;;26.19;52.90;100400.88;5033437;28;45715;-65
2021/09/14 09:24:48;;;;;;;;;5.00;4.67;;;;;26.21;53.16;100399.81;5054998;28;45607;-65
2021/09/14 09:27:16;;;;;;;;;8.33;7.33;;;;;26.25;53.60;100406.00;5032891;28;45507;-64
2021/09/14 09:29:42;;;;;;;;;5.67;5.67;;;;;26.25;53.19;100414.16;5052611;28;45548;-66
2021/09/14 09:32:07;;;;;;;;;7.33;7.33;;;;;26.27;53.29;100423.13;5054016;28;45609;-66
2021/09/14 09:34:33;;;;;;;;;10.00;10.00;;;;;26.30;53.43;100417.53;5054274;28;45596;-65
2021/09/14 09:37:03;;;;;;;;;6.33;5.33;;;;;26.29;52.90;100419.34;5046253;28;45566;-66
2021/09/14 09:39:42;;;;;;;;;4.00;4.00;;;;;26.31;52.71;100413.81;5053228;28;45459;-66
2021/09/14 09:42:08;;;;;;;;;3.00;3.00;;;;;26.32;53.20;100408.28;5045050;28;45789;-66
2021/09/14 09:44:34;;;;;;;;;3.00;2.00;;;;;26.35;53.33;100407.22;5054867;28;46379;-66
2021/09/14 09:47:01;;;;;;;;;7.00;7.00;;;;;26.38;53.62;100401.63;5054760;28;45522;-66
2021/09/14 09:49:27;;;;;;;;;3.00;3.00;;;;;26.40;53.22;100402.41;5042839;28;45649;-65
2021/09/14 09:51:54;;;;;;;;;3.00;3.00;;;;;26.43;53.34;100398.63;5054018;28;45429;-64
2021/09/14 09:54:20;;;;;;;;;6.67;5.67;;;;;26.47;52.91;100397.47;5044939;28;46194;-64
2021/09/14 09:56:48;;;;;;;;;8.33;7.33;;;;;26.50;53.16;100402.72;5036802;28;45464;-64
2021/09/14 09:59:15;;;;;;;;;5.00;5.00;;;;;26.50;52.97;100397.28;5047122;28;45490;-65
2021/09/14 10:02:03;;;;;;;;;7.00;6.33;;;;;26.54;53.74;100396.13;5016457;28;45372;-65
2021/09/14 10:04:29;;;;;;;;;5.67;5.00;;;;;26.57;52.92;100400.56;5026456;28;47061;-65
2021/09/14 10:06:57;;;;;;;;;5.67;5.00;;;;;26.59;53.08;100394.06;5045985;28;45453;-64
2021/09/14 10:09:32;;;;;;;;;3.33;3.33;;;;;26.62;53.04;100390.25;5049317;28;45473;-63
2021/09/14 10:11:58;;;;;;;;;4.33;4.33;;;;;26.67;52.79;100402.69;5033496;28;45532;-64
2021/09/14 10:14:24;;;;;;;;;3.00;2.33;;;;;26.70;53.21;100405.25;5039422;28;45516;-64
2021/09/14 10:16:49;;;;;;;;;4.67;4.67;;;;;26.71;52.79;100400.66;5043913;28;45465;-64
2021/09/14 10:19:29;;;;;;;;;3.67;3.67;;;;;26.76;52.72;100403.97;5054959;28;45455;-64
2021/09/14 10:22:05;;;;;;;;;4.33;4.33;;;;;26.79;52.83;100403.81;5040558;28;45330;-64
2021/09/14 10:24:31;;;;;;;;;4.67;4.67;;;;;26.83;52.22;100399.06;5034844;28;46204;-65
2021/09/14 10:27:08;;;;;;;;;4.33;4.33;;;;;26.87;53.01;100397.91;5034601;28;45469;-64
2021/09/14 10:29:35;;;;;;;;;7.67;7.67;;;;;26.90;52.62;100394.97;5042650;28;45503;-64
2021/09/14 10:32:13;;;;;;;;;7.00;7.00;;;;;26.92;52.61;100399.41;5035282;28;45723;-63
2021/09/14 10:34:52;;;;;;;;;5.67;5.67;;;;;26.96;52.50;100399.19;5035808;28;46396;-64
2021/09/14 10:37:17;;;;;;;;;6.67;6.00;;;;;26.96;52.23;100399.19;5034161;28;45970;-64
2021/09/14 10:39:44;;;;;;;;;5.33;5.33;;;;;27.01;52.10;100395.22;5034465;28;45520;-64
2021/09/14 10:42:22;;;;;;;;;5.00;5.00;;;;;27.03;52.07;100406.94;5016329;28;45517;-66
2021/09/14 10:44:53;;;;;;;;;7.67;7.67;;;;;27.07;52.40;100402.16;5034556;28;45768;-63
2021/09/14 10:47:21;;;;;;;;;6.00;6.00;;;;;27.07;51.61;100394.84;5059762;28;45562;-64
2021/09/14 10:49:59;;;;;;;;;8.00;6.00;;;;;27.11;52.36;100396.44;5074789;28;45503;-63
2021/09/14 10:52:32;;;;;;;;;6.67;6.00;;;;;27.16;52.38;100400.72;5055674;28;45354;-65
2021/09/14 10:55:11;;;;;;;;;6.00;6.00;;;;;27.19;51.55;100395.06;5055184;28;45417;-63
2021/09/14 10:57:48;;;;;;;;;7.33;7.33;;;;;27.21;51.65;100394.03;5036009;28;45465;-66
2021/09/14 11:00:19;;;;;;;;;7.33;7.33;;;;;27.23;51.51;100400.31;5035595;28;45453;-67
2021/09/14 11:03:01;;;;;;;;;6.33;6.33;;;;;27.25;52.02;100401.09;5074560;28;45643;-67
2021/09/14 11:05:30;;;;;;;;;6.33;5.00;;;;;27.27;52.17;100399.13;5035669;28;47612;-66
2021/09/14 11:08:06;;;;;;;;;5.33;5.33;;;;;27.30;51.66;100398.06;5052950;28;45444;-66
2021/09/14 11:10:40;;;;;;;;;6.67;5.67;;;;;27.32;52.07;100394.25;5040789;28;45757;-66
2021/09/14 11:13:06;;;;;;;;;6.00;6.00;;;;;27.36;51.36;100396.81;5018234;28;45308;-66
2021/09/14 11:15:32;;;;;;;;;4.00;4.00;;;;;27.41;52.20;100400.13;5035399;28;46047;-67
2021/09/14 11:17:58;;;;;;;;;4.00;4.00;;;;;27.44;51.49;100405.41;5034924;28;45514;-67
2021/09/14 11:20:26;;;;;;;;;4.33;4.00;;;;;27.45;51.80;100402.59;5045831;28;45422;-66
2021/09/14 11:22:54;;;;;;;;;4.00;4.00;;;;;27.49;51.65;100397.78;5043203;28;45428;-67
2021/09/14 11:25:28;;;;;;;;;3.67;3.67;;;;;27.54;52.19;100406.59;5035420;28;45429;-68
2021/09/14 11:27:58;;;;;;;;;2.67;2.67;;;;;27.56;51.16;100395.59;5033219;28;45402;-68
2021/09/14 11:30:31;;;;;;;;;2.67;2.67;;;;;27.60;51.82;100394.41;5031733;28;45456;-67
2021/09/14 11:33:00;;;;;;;;;2.00;2.00;;;;;27.63;51.15;100389.66;5029329;28;45854;-68
2021/09/14 11:35:36;;;;;;;;;4.00;4.00;;;;;27.66;51.37;100394.03;5030992;28;46312;-66
2021/09/14 11:38:10;;;;;;;;;4.00;4.00;;;;;27.66;50.98;100385.84;5031679;28;45457;-68
2021/09/14 11:40:45;;;;;;;;;5.00;4.00;;;;;27.71;50.98;100389.13;5032294;28;45884;-67
2021/09/14 11:43:17;;;;;;;;;5.00;5.00;;;;;27.69;50.98;100385.63;5032545;28;45525;-67
2021/09/14 11:45:43;;;;;;;;;5.00;5.00;;;;;27.71;51.60;100392.78;5029449;28;45527;-64
2021/09/14 11:48:17;;;;;;;;;5.00;4.00;;;;;27.72;51.63;100386.31;5031513;28;45047;-69
2021/09/14 11:50:43;;;;;;;;;2.33;2.33;;;;;27.73;51.49;100381.72;5031467;28;45432;-66
2021/09/14 11:53:12;;;;;;;;;6.00;6.00;;;;;27.76;51.85;100383.41;5013035;28;45602;-66
2021/09/14 11:55:48;;;;;;;;;4.67;4.67;;;;;27.78;51.67;100376.84;5033613;28;46178;-64
2021/09/14 11:58:15;;;;;;;;;5.67;5.33;;;;;27.79;51.50;100375.88;5055648;28;45416;-64
2021/09/14 12:00:46;;;;;;;;;6.00;5.00;;;;;27.83;51.59;100376.56;5051811;28;45690;-64
2021/09/14 12:03:17;;;;;;;;;4.67;4.67;;;;;27.80;51.18;100363.97;5016377;28;45718;-67
2021/09/14 12:05:56;;;;;;;;;3.00;3.00;;;;;27.88;51.31;100379.91;5015638;28;47856;-64
2021/09/14 12:08:34;;;;;;;;;4.67;4.67;;;;;27.91;51.12;100376.97;5035975;28;45764;-70
2021/09/14 12:11:00;;;;;;;;;4.00;4.00;;;;;27.93;51.05;100369.56;5025785;28;47086;-65
2021/09/14 12:13:26;;;;;;;;;3.33;3.33;;;;;27.96;50.57;100369.38;5048300;28;45737;-66
2021/09/14 12:16:03;;;;;;;;;1.33;1.33;;;;;27.97;50.25;100373.84;5034075;28;46420;-66
2021/09/14 12:18:28;;;;;;;;;1.33;1.33;;;;;27.95;49.94;100367.59;5045186;28;45549;-67
2021/09/14 12:20:55;;;;;;;;;5.33;1.67;;;;;28.02;50.12;100374.44;5055212;28;45482;-67
2021/09/14 12:23:20;;;;;;;;;3.00;3.00;;;;;28.02;50.45;100363.50;5052878;28;45437;-66
2021/09/14 12:25:45;;;;;;;;;4.00;3.00;;;;;28.04;49.83;100356.09;5053753;28;45488;-67
2021/09/14 12:28:11;;;;;;;;;3.00;3.00;;;;;28.05;49.84;100357.81;5050557;28;45889;-67